Haukanier, Texas
Current Conditions -  °F | °C
As of 10:15 PM on Tuesday 25 Nov 2014 (Local Time) from KBMT Reporting Station
Clear Clear  
Wind Chill: 41°   Ceiling: Unl
Heat Index: 41°   Visibility: 10mi
Dew Point: 39°   Wind: 0mph
Humidity: 94%   Direction: NA
Pressure: 30.25"   Gusts: NA
Location:  29.8747°N, 94.58°W
Report Text: KBMT 260415Z AUTO 00000KT 10SM CLR 05/04 A3025 RMK AO2 T00480039
Loading
Personal Weather Stations






























Interactive Weather Map New forecast layout! Learn more

10-Day Weather Forecast

Advertisements
Track Severe Weather on mobile